sensor_id;sensor_type;location;lat;lon;timestamp;pressure;altitude;pressure_sealevel;temperature;humidity
2711;BME280;20721;47.402;8.550;2023-09-30T00:00:39;96968;;;21.11;49.50
2711;BME280;20721;47.402;8.550;2023-09-30T00:02:39;96962;;;21.02;49.86
2711;BME280;20721;47.402;8.550;2023-09-30T00:04:39;96962;;;20.84;50.02
2711;BME280;20721;47.402;8.550;2023-09-30T00:06:39;96972;;;20.73;50.48
2711;BME280;20721;47.402;8.550;2023-09-30T00:08:41;96973;;;20.79;50.74
2711;BME280;20721;47.402;8.550;2023-09-30T00:11:39;96975;;;20.76;50.97
2711;BME280;20721;47.402;8.550;2023-09-30T00:14:39;96981;;;20.72;51.42
2711;BME280;20721;47.402;8.550;2023-09-30T00:16:39;96978;;;20.68;51.68
2711;BME280;20721;47.402;8.550;2023-09-30T00:18:40;96980;;;20.61;51.77
2711;BME280;20721;47.402;8.550;2023-09-30T00:20:39;96985;;;20.61;51.84
2711;BME280;20721;47.402;8.550;2023-09-30T00:22:39;96990;;;20.64;51.82
2711;BME280;20721;47.402;8.550;2023-09-30T00:24:39;96992;;;20.73;51.52
2711;BME280;20721;47.402;8.550;2023-09-30T00:26:39;96988;;;20.79;51.29
2711;BME280;20721;47.402;8.550;2023-09-30T00:28:39;96987;;;20.85;51.31
2711;BME280;20721;47.402;8.550;2023-09-30T00:30:39;96983;;;20.87;51.34
2711;BME280;20721;47.402;8.550;2023-09-30T00:33:39;96978;;;20.90;50.70
2711;BME280;20721;47.402;8.550;2023-09-30T00:35:39;96974;;;20.90;50.74
2711;BME280;20721;47.402;8.550;2023-09-30T00:37:39;96977;;;20.91;50.93
2711;BME280;20721;47.402;8.550;2023-09-30T00:39:39;96979;;;20.92;50.95
2711;BME280;20721;47.402;8.550;2023-09-30T00:42:39;96985;;;20.93;50.95
2711;BME280;20721;47.402;8.550;2023-09-30T00:46:41;96990;;;20.92;50.79
2711;BME280;20721;47.402;8.550;2023-09-30T00:48:39;96989;;;20.91;50.98
2711;BME280;20721;47.402;8.550;2023-09-30T00:50:40;96979;;;20.91;50.88
2711;BME280;20721;47.402;8.550;2023-09-30T00:54:39;96973;;;20.90;51.19
2711;BME280;20721;47.402;8.550;2023-09-30T00:56:43;96979;;;20.86;51.13
2711;BME280;20721;47.402;8.550;2023-09-30T00:59:39;96964;;;20.84;51.15
2711;BME280;20721;47.402;8.550;2023-09-30T01:01:40;96956;;;20.82;51.31
2711;BME280;20721;47.402;8.550;2023-09-30T01:03:40;96947;;;20.76;51.16
2711;BME280;20721;47.402;8.550;2023-09-30T01:07:39;96944;;;20.72;51.17
2711;BME280;20721;47.402;8.550;2023-09-30T01:09:39;96949;;;20.57;51.78
2711;BME280;20721;47.402;8.550;2023-09-30T01:11:40;96956;;;20.34;52.25
2711;BME280;20721;47.402;8.550;2023-09-30T01:13:40;96955;;;20.40;52.13
2711;BME280;20721;47.402;8.550;2023-09-30T01:15:39;96954;;;20.47;51.94
2711;BME280;20721;47.402;8.550;2023-09-30T01:17:39;96951;;;20.55;51.93
2711;BME280;20721;47.402;8.550;2023-09-30T01:19:40;96947;;;20.59;52.00
2711;BME280;20721;47.402;8.550;2023-09-30T01:21:41;96948;;;20.64;52.01
2711;BME280;20721;47.402;8.550;2023-09-30T01:23:39;96945;;;20.71;52.10
2711;BME280;20721;47.402;8.550;2023-09-30T01:25:39;96940;;;20.72;52.08
2711;BME280;20721;47.402;8.550;2023-09-30T01:27:39;96938;;;20.72;52.12
2711;BME280;20721;47.402;8.550;2023-09-30T01:29:40;96939;;;20.72;52.19
2711;BME280;20721;47.402;8.550;2023-09-30T01:32:39;96938;;;20.69;52.25
2711;BME280;20721;47.402;8.550;2023-09-30T01:35:39;96938;;;20.68;52.31
2711;BME280;20721;47.402;8.550;2023-09-30T01:37:39;96940;;;20.64;52.39
2711;BME280;20721;47.402;8.550;2023-09-30T01:39:39;96941;;;20.65;52.36
2711;BME280;20721;47.402;8.550;2023-09-30T01:41:40;96939;;;20.63;52.59
2711;BME280;20721;47.402;8.550;2023-09-30T01:44:39;96935;;;20.63;52.67
2711;BME280;20721;47.402;8.550;2023-09-30T01:46:39;96944;;;20.57;53.06
2711;BME280;20721;47.402;8.550;2023-09-30T01:48:39;96945;;;20.55;53.18
2711;BME280;20721;47.402;8.550;2023-09-30T01:50:40;96942;;;20.51;53.48
2711;BME280;20721;47.402;8.550;2023-09-30T01:58:39;96927;;;20.53;52.88
2711;BME280;20721;47.402;8.550;2023-09-30T02:00:40;96930;;;20.50;52.95
2711;BME280;20721;47.402;8.550;2023-09-30T02:02:40;96936;;;20.42;53.42
2711;BME280;20721;47.402;8.550;2023-09-30T02:04:39;96945;;;20.42;53.37
2711;BME280;20721;47.402;8.550;2023-09-30T02:06:40;96947;;;20.47;53.51
2711;BME280;20721;47.402;8.550;2023-09-30T02:09:39;96940;;;20.50;53.29
2711;BME280;20721;47.402;8.550;2023-09-30T02:11:41;96938;;;20.53;53.25
2711;BME280;20721;47.402;8.550;2023-09-30T02:13:40;96942;;;20.41;53.65
2711;BME280;20721;47.402;8.550;2023-09-30T02:15:40;96938;;;20.29;54.01
2711;BME280;20721;47.402;8.550;2023-09-30T02:17:39;96935;;;20.31;54.16
2711;BME280;20721;47.402;8.550;2023-09-30T02:20:40;96926;;;20.24;53.94
2711;BME280;20721;47.402;8.550;2023-09-30T02:22:39;96928;;;20.06;54.62
2711;BME280;20721;47.402;8.550;2023-09-30T02:24:40;96923;;;20.08;54.61
2711;BME280;20721;47.402;8.550;2023-09-30T02:26:39;96923;;;20.13;54.28
2711;BME280;20721;47.402;8.550;2023-09-30T02:29:39;96927;;;20.16;54.27
2711;BME280;20721;47.402;8.550;2023-09-30T02:32:40;96929;;;20.16;54.02
2711;BME280;20721;47.402;8.550;2023-09-30T02:34:39;96931;;;20.16;53.95
2711;BME280;20721;47.402;8.550;2023-09-30T02:37:40;96934;;;20.19;53.79
2711;BME280;20721;47.402;8.550;2023-09-30T02:39:40;96937;;;20.20;53.72
2711;BME280;20721;47.402;8.550;2023-09-30T02:43:40;96940;;;20.22;53.72
2711;BME280;20721;47.402;8.550;2023-09-30T02:45:40;96939;;;20.23;53.69
2711;BME280;20721;47.402;8.550;2023-09-30T02:49:39;96946;;;20.22;53.99
2711;BME280;20721;47.402;8.550;2023-09-30T02:51:40;96945;;;20.16;54.03
2711;BME280;20721;47.402;8.550;2023-09-30T02:53:40;96942;;;20.18;54.11
2711;BME280;20721;47.402;8.550;2023-09-30T02:55:40;96942;;;20.20;54.01
2711;BME280;20721;47.402;8.550;2023-09-30T02:57:40;96943;;;20.21;54.10
2711;BME280;20721;47.402;8.550;2023-09-30T02:59:39;96938;;;20.18;54.04
2711;BME280;20721;47.402;8.550;2023-09-30T03:02:39;96938;;;20.16;54.21
2711;BME280;20721;47.402;8.550;2023-09-30T03:06:40;96934;;;20.17;54.10
2711;BME280;20721;47.402;8.550;2023-09-30T03:08:41;96933;;;20.17;54.24
2711;BME280;20721;47.402;8.550;2023-09-30T03:10:40;96937;;;20.15;54.20
2711;BME280;20721;47.402;8.550;2023-09-30T03:12:40;96940;;;20.14;54.27
2711;BME280;20721;47.402;8.550;2023-09-30T03:14:40;96940;;;20.11;54.25
2711;BME280;20721;47.402;8.550;2023-09-30T03:16:41;96941;;;20.11;54.26
2711;BME280;20721;47.402;8.550;2023-09-30T03:18:40;96945;;;20.11;54.47
2711;BME280;20721;47.402;8.550;2023-09-30T03:24:41;96946;;;20.14;54.84
2711;BME280;20721;47.402;8.550;2023-09-30T03:27:41;96946;;;20.18;54.57
2711;BME280;20721;47.402;8.550;2023-09-30T03:29:41;96936;;;20.18;54.49
2711;BME280;20721;47.402;8.550;2023-09-30T03:31:40;96931;;;20.16;54.42
2711;BME280;20721;47.402;8.550;2023-09-30T03:33:40;96934;;;20.09;54.60
2711;BME280;20721;47.402;8.550;2023-09-30T03:35:40;96934;;;20.05;54.90
2711;BME280;20721;47.402;8.550;2023-09-30T03:40:40;96944;;;20.07;54.82
2711;BME280;20721;47.402;8.550;2023-09-30T03:42:40;96946;;;20.07;54.80
2711;BME280;20721;47.402;8.550;2023-09-30T03:44:40;96941;;;20.09;54.82
2711;BME280;20721;47.402;8.550;2023-09-30T03:46:40;96936;;;20.07;54.60
2711;BME280;20721;47.402;8.550;2023-09-30T03:48:40;96942;;;20.06;54.78
2711;BME280;20721;47.402;8.550;2023-09-30T03:50:40;96946;;;20.03;54.88
2711;BME280;20721;47.402;8.550;2023-09-30T03:53:42;96947;;;20.00;55.16
2711;BME280;20721;47.402;8.550;2023-09-30T03:56:41;96955;;;20.00;55.15
2711;BME280;20721;47.402;8.550;2023-09-30T03:58:41;96954;;;19.95;55.21
2711;BME280;20721;47.402;8.550;2023-09-30T04:00:40;96955;;;19.86;55.58
2711;BME280;20721;47.402;8.550;2023-09-30T04:02:42;96948;;;19.68;56.11
2711;BME280;20721;47.402;8.550;2023-09-30T04:04:40;96948;;;19.57;56.45
2711;BME280;20721;47.402;8.550;2023-09-30T04:07:42;96943;;;19.57;56.84
2711;BME280;20721;47.402;8.550;2023-09-30T04:09:40;96936;;;19.61;56.64
2711;BME280;20721;47.402;8.550;2023-09-30T04:12:40;96930;;;19.60;56.46
2711;BME280;20721;47.402;8.550;2023-09-30T04:14:40;96925;;;19.44;56.87
2711;BME280;20721;47.402;8.550;2023-09-30T04:16:41;96924;;;19.33;57.21
2711;BME280;20721;47.402;8.550;2023-09-30T04:18:40;96922;;;19.18;57.68
2711;BME280;20721;47.402;8.550;2023-09-30T04:20:40;96914;;;18.98;58.27
2711;BME280;20721;47.402;8.550;2023-09-30T04:22:40;96916;;;18.94;58.57
2711;BME280;20721;47.402;8.550;2023-09-30T04:24:40;96916;;;19.02;58.41
2711;BME280;20721;47.402;8.550;2023-09-30T04:26:41;96916;;;19.12;58.15
2711;BME280;20721;47.402;8.550;2023-09-30T04:28:40;96910;;;19.17;57.97
2711;BME280;20721;47.402;8.550;2023-09-30T04:30:40;96907;;;19.20;57.92
2711;BME280;20721;47.402;8.550;2023-09-30T04:32:40;96906;;;19.25;57.80
2711;BME280;20721;47.402;8.550;2023-09-30T04:34:40;96912;;;19.31;57.56
2711;BME280;20721;47.402;8.550;2023-09-30T04:36:40;96916;;;19.35;57.57
2711;BME280;20721;47.402;8.550;2023-09-30T04:38:40;96921;;;19.40;57.38
2711;BME280;20721;47.402;8.550;2023-09-30T04:40:40;96924;;;19.41;57.61
2711;BME280;20721;47.402;8.550;2023-09-30T04:42:40;96929;;;19.46;57.54
2711;BME280;20721;47.402;8.550;2023-09-30T04:45:40;96924;;;19.48;57.47
2711;BME280;20721;47.402;8.550;2023-09-30T04:47:40;96924;;;19.45;57.47
2711;BME280;20721;47.402;8.550;2023-09-30T04:49:40;96930;;;19.44;57.43
2711;BME280;20721;47.402;8.550;2023-09-30T04:51:40;96927;;;19.36;57.62
2711;BME280;20721;47.402;8.550;2023-09-30T04:53:41;96928;;;19.33;57.66
2711;BME280;20721;47.402;8.550;2023-09-30T04:55:40;96936;;;19.32;57.61
2711;BME280;20721;47.402;8.550;2023-09-30T04:57:40;96941;;;19.34;57.53
2711;BME280;20721;47.402;8.550;2023-09-30T04:59:40;96942;;;19.37;57.56
2711;BME280;20721;47.402;8.550;2023-09-30T05:03:40;96938;;;19.42;57.49
2711;BME280;20721;47.402;8.550;2023-09-30T05:05:41;96935;;;19.42;57.47
2711;BME280;20721;47.402;8.550;2023-09-30T05:07:41;96932;;;19.35;57.53
2711;BME280;20721;47.402;8.550;2023-09-30T05:09:41;96940;;;19.30;57.64
2711;BME280;20721;47.402;8.550;2023-09-30T05:13:40;96956;;;19.30;57.80
2711;BME280;20721;47.402;8.550;2023-09-30T05:15:41;96957;;;19.33;57.88
2711;BME280;20721;47.402;8.550;2023-09-30T05:17:40;96956;;;19.35;57.88
2711;BME280;20721;47.402;8.550;2023-09-30T05:19:40;96955;;;19.38;57.69
2711;BME280;20721;47.402;8.550;2023-09-30T05:21:40;96957;;;19.36;57.71
2711;BME280;20721;47.402;8.550;2023-09-30T05:23:40;96957;;;19.34;57.85
2711;BME280;20721;47.402;8.550;2023-09-30T05:25:40;96952;;;19.31;57.71
2711;BME280;20721;47.402;8.550;2023-09-30T05:27:40;96954;;;19.30;57.93
2711;BME280;20721;47.402;8.550;2023-09-30T05:29:40;96949;;;19.28;58.12
2711;BME280;20721;47.402;8.550;2023-09-30T05:32:40;96949;;;19.29;58.23
2711;BME280;20721;47.402;8.550;2023-09-30T05:36:40;96951;;;19.30;58.18
2711;BME280;20721;47.402;8.550;2023-09-30T05:38:40;96961;;;19.31;58.31
2711;BME280;20721;47.402;8.550;2023-09-30T05:40:42;96967;;;19.34;58.18
2711;BME280;20721;47.402;8.550;2023-09-30T05:42:43;96972;;;19.38;57.98
2711;BME280;20721;47.402;8.550;2023-09-30T05:44:41;96977;;;19.40;57.87
2711;BME280;20721;47.402;8.550;2023-09-30T05:46:40;96979;;;19.40;57.72
2711;BME280;20721;47.402;8.550;2023-09-30T05:50:40;96979;;;19.42;57.63
2711;BME280;20721;47.402;8.550;2023-09-30T05:53:41;96985;;;19.41;57.57
2711;BME280;20721;47.402;8.550;2023-09-30T05:55:43;96984;;;19.39;57.61
2711;BME280;20721;47.402;8.550;2023-09-30T05:57:40;96982;;;19.38;57.71
2711;BME280;20721;47.402;8.550;2023-09-30T06:00:42;96980;;;19.38;57.92
2711;BME280;20721;47.402;8.550;2023-09-30T06:02:40;96982;;;19.32;57.94
2711;BME280;20721;47.402;8.550;2023-09-30T06:04:40;96980;;;19.30;57.98
2711;BME280;20721;47.402;8.550;2023-09-30T06:06:42;96978;;;19.31;57.89
2711;BME280;20721;47.402;8.550;2023-09-30T06:08:40;96982;;;19.33;58.05
2711;BME280;20721;47.402;8.550;2023-09-30T06:10:43;96980;;;19.35;58.04
2711;BME280;20721;47.402;8.550;2023-09-30T06:12:41;96982;;;19.37;58.00
2711;BME280;20721;47.402;8.550;2023-09-30T06:14:40;96992;;;19.41;57.94
2711;BME280;20721;47.402;8.550;2023-09-30T06:16:40;96998;;;19.45;57.92
2711;BME280;20721;47.402;8.550;2023-09-30T06:18:40;97002;;;19.45;57.71
2711;BME280;20721;47.402;8.550;2023-09-30T06:24:40;97008;;;19.45;57.83
2711;BME280;20721;47.402;8.550;2023-09-30T06:27:40;97017;;;19.46;57.82
2711;BME280;20721;47.402;8.550;2023-09-30T06:30:42;97006;;;19.47;57.82
2711;BME280;20721;47.402;8.550;2023-09-30T06:32:40;97003;;;19.49;57.68
2711;BME280;20721;47.402;8.550;2023-09-30T06:34:40;97002;;;19.54;57.63
2711;BME280;20721;47.402;8.550;2023-09-30T06:36:40;97005;;;19.57;57.36
2711;BME280;20721;47.402;8.550;2023-09-30T06:38:42;97006;;;19.62;57.19
2711;BME280;20721;47.402;8.550;2023-09-30T06:40:43;97014;;;19.66;57.14
2711;BME280;20721;47.402;8.550;2023-09-30T06:42:40;97018;;;19.74;57.05
2711;BME280;20721;47.402;8.550;2023-09-30T06:44:40;97021;;;19.79;57.02
2711;BME280;20721;47.402;8.550;2023-09-30T06:46:44;97021;;;19.86;56.88
2711;BME280;20721;47.402;8.550;2023-09-30T06:48:40;97025;;;19.94;56.51
2711;BME280;20721;47.402;8.550;2023-09-30T06:50:44;97018;;;20.04;56.31
2711;BME280;20721;47.402;8.550;2023-09-30T06:52:41;97013;;;20.16;55.69
2711;BME280;20721;47.402;8.550;2023-09-30T06:54:40;97026;;;21.69;52.49
2711;BME280;20721;47.402;8.550;2023-09-30T06:56:41;97024;;;22.39;50.51
2711;BME280;20721;47.402;8.550;2023-09-30T06:58:40;97022;;;22.38;50.46
2711;BME280;20721;47.402;8.550;2023-09-30T07:00:41;97022;;;22.32;50.31
2711;BME280;20721;47.402;8.550;2023-09-30T07:02:40;97023;;;22.75;49.61
2711;BME280;20721;47.402;8.550;2023-09-30T07:04:41;97021;;;22.60;49.30
2711;BME280;20721;47.402;8.550;2023-09-30T07:06:40;97025;;;22.80;49.02
2711;BME280;20721;47.402;8.550;2023-09-30T07:08:40;97033;;;22.70;48.87
2711;BME280;20721;47.402;8.550;2023-09-30T07:11:40;97037;;;23.04;48.36
2711;BME280;20721;47.402;8.550;2023-09-30T07:13:40;97039;;;23.29;48.14
2711;BME280;20721;47.402;8.550;2023-09-30T07:15:40;97034;;;23.53;47.45
2711;BME280;20721;47.402;8.550;2023-09-30T07:17:46;97041;;;23.69;47.04
2711;BME280;20721;47.402;8.550;2023-09-30T07:19:40;97046;;;24.12;46.06
2711;BME280;20721;47.402;8.550;2023-09-30T07:21:40;97028;;;23.91;45.84
2711;BME280;20721;47.402;8.550;2023-09-30T07:23:41;97030;;;23.58;46.69
2711;BME280;20721;47.402;8.550;2023-09-30T07:25:41;97035;;;23.49;46.99
2711;BME280;20721;47.402;8.550;2023-09-30T07:27:41;97038;;;23.76;46.50
2711;BME280;20721;47.402;8.550;2023-09-30T07:29:40;97045;;;24.16;45.73
2711;BME280;20721;47.402;8.550;2023-09-30T07:31:40;97049;;;26.60;41.29
2711;BME280;20721;47.402;8.550;2023-09-30T07:33:41;97053;;;27.66;39.11
2711;BME280;20721;47.402;8.550;2023-09-30T07:35:40;97052;;;26.95;39.97
2711;BME280;20721;47.402;8.550;2023-09-30T07:37:41;97055;;;25.93;41.24
2711;BME280;20721;47.402;8.550;2023-09-30T07:39:40;97057;;;25.20;42.78
2711;BME280;20721;47.402;8.550;2023-09-30T07:41:40;97067;;;24.62;44.22
2711;BME280;20721;47.402;8.550;2023-09-30T07:43:40;97062;;;24.12;45.19
2711;BME280;20721;47.402;8.550;2023-09-30T07:45:40;97058;;;23.79;45.94
2711;BME280;20721;47.402;8.550;2023-09-30T07:47:40;97057;;;23.69;46.28
2711;BME280;20721;47.402;8.550;2023-09-30T07:49:40;97064;;;23.63;46.69
2711;BME280;20721;47.402;8.550;2023-09-30T07:51:40;97069;;;23.53;46.61
2711;BME280;20721;47.402;8.550;2023-09-30T07:53:40;97064;;;23.42;47.04
2711;BME280;20721;47.402;8.550;2023-09-30T07:55:40;97052;;;23.58;46.89
2711;BME280;20721;47.402;8.550;2023-09-30T07:57:42;97055;;;24.45;45.24
2711;BME280;20721;47.402;8.550;2023-09-30T07:59:40;97051;;;26.39;41.24
2711;BME280;20721;47.402;8.550;2023-09-30T08:01:40;97041;;;26.63;40.62
2711;BME280;20721;47.402;8.550;2023-09-30T08:03:40;97053;;;27.06;39.93
2711;BME280;20721;47.402;8.550;2023-09-30T08:05:41;97054;;;27.22;39.93
2711;BME280;20721;47.402;8.550;2023-09-30T08:07:41;97050;;;26.74;40.46
2711;BME280;20721;47.402;8.550;2023-09-30T08:09:40;97054;;;26.16;41.34
2711;BME280;20721;47.402;8.550;2023-09-30T08:11:40;97061;;;25.62;42.12
2711;BME280;20721;47.402;8.550;2023-09-30T08:13:40;97056;;;25.10;43.40
2711;BME280;20721;47.402;8.550;2023-09-30T08:15:40;97054;;;24.58;43.81
2711;BME280;20721;47.402;8.550;2023-09-30T08:17:41;97050;;;24.04;44.75
2711;BME280;20721;47.402;8.550;2023-09-30T08:19:40;97048;;;23.28;46.55
2711;BME280;20721;47.402;8.550;2023-09-30T08:21:41;97052;;;22.71;47.52
2711;BME280;20721;47.402;8.550;2023-09-30T08:23:40;97047;;;22.59;47.86
2711;BME280;20721;47.402;8.550;2023-09-30T08:25:40;97047;;;24.02;45.90
2711;BME280;20721;47.402;8.550;2023-09-30T08:27:42;97063;;;25.22;43.46
2711;BME280;20721;47.402;8.550;2023-09-30T08:29:40;97050;;;27.54;39.26
2711;BME280;20721;47.402;8.550;2023-09-30T08:31:40;97059;;;27.07;39.51
2711;BME280;20721;47.402;8.550;2023-09-30T08:33:43;97067;;;26.52;40.53
2711;BME280;20721;47.402;8.550;2023-09-30T08:35:41;97068;;;26.02;41.35
2711;BME280;20721;47.402;8.550;2023-09-30T08:37:40;97080;;;25.87;41.74
2711;BME280;20721;47.402;8.550;2023-09-30T08:39:41;97076;;;27.45;38.93
2711;BME280;20721;47.402;8.550;2023-09-30T08:41:44;97065;;;28.35;37.56
2711;BME280;20721;47.402;8.550;2023-09-30T08:43:41;97063;;;30.59;34.19
2711;BME280;20721;47.402;8.550;2023-09-30T08:45:41;97044;;;31.19;32.73
2711;BME280;20721;47.402;8.550;2023-09-30T08:47:40;97024;;;30.78;33.10
2711;BME280;20721;47.402;8.550;2023-09-30T08:49:41;97019;;;31.98;31.51
2711;BME280;20721;47.402;8.550;2023-09-30T08:51:40;97025;;;33.96;29.08
2711;BME280;20721;47.402;8.550;2023-09-30T08:53:40;97025;;;35.45;27.25
2711;BME280;20721;47.402;8.550;2023-09-30T08:55:40;97025;;;36.12;25.66
2711;BME280;20721;47.402;8.550;2023-09-30T08:57:41;97027;;;37.09;24.80
2711;BME280;20721;47.402;8.550;2023-09-30T08:59:41;97036;;;37.83;23.88
2711;BME280;20721;47.402;8.550;2023-09-30T09:01:40;97049;;;38.37;23.34
2711;BME280;20721;47.402;8.550;2023-09-30T09:03:41;97048;;;38.95;22.90
2711;BME280;20721;47.402;8.550;2023-09-30T09:05:40;97035;;;38.83;22.83
2711;BME280;20721;47.402;8.550;2023-09-30T09:07:42;97033;;;39.17;22.60
2711;BME280;20721;47.402;8.550;2023-09-30T09:09:40;97032;;;39.63;21.55
2711;BME280;20721;47.402;8.550;2023-09-30T09:11:40;97032;;;39.94;20.87
2711;BME280;20721;47.402;8.550;2023-09-30T09:13:56;97033;;;40.21;20.96
2711;BME280;20721;47.402;8.550;2023-09-30T09:15:41;97035;;;40.29;20.72
2711;BME280;20721;47.402;8.550;2023-09-30T09:17:42;97035;;;40.56;20.60
2711;BME280;20721;47.402;8.550;2023-09-30T09:19:40;97033;;;40.70;20.17
2711;BME280;20721;47.402;8.550;2023-09-30T09:22:04;97035;;;40.31;20.47
2711;BME280;20721;47.402;8.550;2023-09-30T09:25:41;97034;;;38.38;22.35
2711;BME280;20721;47.402;8.550;2023-09-30T09:27:41;97035;;;36.98;23.89
2711;BME280;20721;47.402;8.550;2023-09-30T09:29:42;97032;;;36.03;24.94
2711;BME280;20721;47.402;8.550;2023-09-30T09:31:41;97036;;;35.48;25.70
2711;BME280;20721;47.402;8.550;2023-09-30T09:33:41;97045;;;35.12;26.36
2711;BME280;20721;47.402;8.550;2023-09-30T09:35:41;97042;;;34.76;26.73
2711;BME280;20721;47.402;8.550;2023-09-30T09:37:40;97042;;;34.22;27.05
2711;BME280;20721;47.402;8.550;2023-09-30T09:39:57;97040;;;33.58;27.68
2711;BME280;20721;47.402;8.550;2023-09-30T09:41:56;97042;;;32.59;28.82
2711;BME280;20721;47.402;8.550;2023-09-30T09:43:41;97041;;;31.44;30.32
2711;BME280;20721;47.402;8.550;2023-09-30T09:45:41;97038;;;30.67;31.84
2711;BME280;20721;47.402;8.550;2023-09-30T09:47:41;97045;;;30.09;32.88
2711;BME280;20721;47.402;8.550;2023-09-30T09:49:41;97045;;;29.59;33.54
2711;BME280;20721;47.402;8.550;2023-09-30T09:51:41;97042;;;29.16;34.25
2711;BME280;20721;47.402;8.550;2023-09-30T09:53:41;97040;;;28.76;35.15
2711;BME280;20721;47.402;8.550;2023-09-30T09:55:41;97040;;;28.48;35.86
2711;BME280;20721;47.402;8.550;2023-09-30T09:57:41;97036;;;28.18;36.03
2711;BME280;20721;47.402;8.550;2023-09-30T09:59:41;97038;;;27.90;36.16
2711;BME280;20721;47.402;8.550;2023-09-30T10:01:42;97032;;;27.66;36.61
2711;BME280;20721;47.402;8.550;2023-09-30T10:03:41;97033;;;27.44;37.34
2711;BME280;20721;47.402;8.550;2023-09-30T10:05:41;97042;;;27.20;37.65
2711;BME280;20721;47.402;8.550;2023-09-30T10:07:43;97042;;;26.90;38.04
2711;BME280;20721;47.402;8.550;2023-09-30T10:09:41;97036;;;26.71;38.43
2711;BME280;20721;47.402;8.550;2023-09-30T10:11:41;97033;;;26.38;38.53
2711;BME280;20721;47.402;8.550;2023-09-30T10:13:49;97033;;;25.98;39.42
2711;BME280;20721;47.402;8.550;2023-09-30T10:15:41;97034;;;25.64;39.86
2711;BME280;20721;47.402;8.550;2023-09-30T10:17:57;97026;;;25.78;39.44
2711;BME280;20721;47.402;8.550;2023-09-30T10:23:41;97010;;;26.71;38.81
2711;BME280;20721;47.402;8.550;2023-09-30T10:25:47;97002;;;27.12;38.08
2711;BME280;20721;47.402;8.550;2023-09-30T10:27:43;96995;;;27.40;37.58
2711;BME280;20721;47.402;8.550;2023-09-30T10:29:42;96989;;;27.54;37.16
2711;BME280;20721;47.402;8.550;2023-09-30T10:31:49;96978;;;27.45;36.87
2711;BME280;20721;47.402;8.550;2023-09-30T10:36:41;96965;;;27.36;37.24
2711;BME280;20721;47.402;8.550;2023-09-30T10:38:41;96973;;;27.31;37.07
2711;BME280;20721;47.402;8.550;2023-09-30T10:40:41;96979;;;27.46;37.96
2711;BME280;20721;47.402;8.550;2023-09-30T10:42:45;96979;;;27.64;37.36
2711;BME280;20721;47.402;8.550;2023-09-30T10:44:41;96973;;;27.78;36.67
2711;BME280;20721;47.402;8.550;2023-09-30T10:46:41;96971;;;27.69;36.26
2711;BME280;20721;47.402;8.550;2023-09-30T10:48:41;96969;;;27.66;37.03
2711;BME280;20721;47.402;8.550;2023-09-30T10:50:57;96964;;;27.74;37.44
2711;BME280;20721;47.402;8.550;2023-09-30T10:52:41;96967;;;27.92;37.62
2711;BME280;20721;47.402;8.550;2023-09-30T10:54:41;96963;;;28.03;37.22
2711;BME280;20721;47.402;8.550;2023-09-30T10:56:41;96961;;;28.13;36.65
2711;BME280;20721;47.402;8.550;2023-09-30T10:58:41;96959;;;28.10;35.71
2711;BME280;20721;47.402;8.550;2023-09-30T11:00:51;96959;;;27.94;35.95
2711;BME280;20721;47.402;8.550;2023-09-30T11:02:49;96963;;;27.83;35.95
2711;BME280;20721;47.402;8.550;2023-09-30T11:04:48;96966;;;27.38;36.58
2711;BME280;20721;47.402;8.550;2023-09-30T11:06:41;96964;;;26.79;37.33
2711;BME280;20721;47.402;8.550;2023-09-30T11:08:44;96965;;;26.50;38.28
2711;BME280;20721;47.402;8.550;2023-09-30T11:10:56;96960;;;26.48;38.20
2711;BME280;20721;47.402;8.550;2023-09-30T11:12:53;96957;;;26.43;38.40
2711;BME280;20721;47.402;8.550;2023-09-30T11:15:41;96955;;;26.43;38.60
2711;BME280;20721;47.402;8.550;2023-09-30T11:17:41;96953;;;26.05;38.80
2711;BME280;20721;47.402;8.550;2023-09-30T11:19:48;96952;;;26.08;38.82
2711;BME280;20721;47.402;8.550;2023-09-30T11:21:41;96950;;;26.07;38.95
2711;BME280;20721;47.402;8.550;2023-09-30T11:23:41;96947;;;25.94;39.38
2711;BME280;20721;47.402;8.550;2023-09-30T11:25:41;96951;;;25.97;39.30
2711;BME280;20721;47.402;8.550;2023-09-30T11:27:41;96954;;;26.05;39.16
2711;BME280;20721;47.402;8.550;2023-09-30T11:29:48;96952;;;26.11;38.89
2711;BME280;20721;47.402;8.550;2023-09-30T11:31:43;96952;;;26.11;38.56
2711;BME280;20721;47.402;8.550;2023-09-30T11:33:51;96953;;;26.13;39.41
2711;BME280;20721;47.402;8.550;2023-09-30T11:36:50;96953;;;26.16;39.66
2711;BME280;20721;47.402;8.550;2023-09-30T11:38:44;96949;;;26.15;39.60
2711;BME280;20721;47.402;8.550;2023-09-30T11:40:41;96947;;;26.11;40.07
2711;BME280;20721;47.402;8.550;2023-09-30T11:45:41;96934;;;26.03;39.18
2711;BME280;20721;47.402;8.550;2023-09-30T11:47:41;96940;;;26.06;39.82
2711;BME280;20721;47.402;8.550;2023-09-30T11:49:44;96937;;;25.98;39.30
2711;BME280;20721;47.402;8.550;2023-09-30T11:51:42;96936;;;26.05;39.53
2711;BME280;20721;47.402;8.550;2023-09-30T11:53:41;96939;;;26.08;39.59
2711;BME280;20721;47.402;8.550;2023-09-30T11:55:41;96940;;;25.97;38.79
2711;BME280;20721;47.402;8.550;2023-09-30T11:57:42;96940;;;26.02;38.85
2711;BME280;20721;47.402;8.550;2023-09-30T11:59:41;96941;;;26.00;38.78
2711;BME280;20721;47.402;8.550;2023-09-30T12:01:41;96934;;;25.63;39.45
2711;BME280;20721;47.402;8.550;2023-09-30T12:03:42;96932;;;25.61;39.33
2711;BME280;20721;47.402;8.550;2023-09-30T12:05:41;96932;;;25.64;39.23
2711;BME280;20721;47.402;8.550;2023-09-30T12:07:41;96931;;;25.62;39.65
2711;BME280;20721;47.402;8.550;2023-09-30T12:10:42;96923;;;25.64;39.08
2711;BME280;20721;47.402;8.550;2023-09-30T12:12:41;96919;;;25.89;39.40
2711;BME280;20721;47.402;8.550;2023-09-30T12:14:41;96915;;;26.17;39.17
2711;BME280;20721;47.402;8.550;2023-09-30T12:16:41;96909;;;26.36;38.80
2711;BME280;20721;47.402;8.550;2023-09-30T12:18:41;96899;;;26.48;38.50
2711;BME280;20721;47.402;8.550;2023-09-30T12:20:42;96900;;;26.61;38.87
2711;BME280;20721;47.402;8.550;2023-09-30T12:22:41;96900;;;26.74;38.90
2711;BME280;20721;47.402;8.550;2023-09-30T12:24:42;96901;;;26.82;38.24
2711;BME280;20721;47.402;8.550;2023-09-30T12:26:43;96902;;;26.81;38.48
2711;BME280;20721;47.402;8.550;2023-09-30T12:28:41;96899;;;26.81;38.08